createdAt,value
2018-02-21T00:01:13.283Z,78.22
2018-02-21T00:03:41.688Z,78.56
2018-02-21T00:06:10.023Z,78.06
2018-02-21T00:08:38.302Z,77.59
2018-02-21T00:11:06.721Z,77.95
2018-02-21T00:13:34.302Z,78.29
2018-02-21T00:16:01.890Z,78.19
2018-02-21T00:18:30.293Z,78.26
2018-02-21T00:20:58.605Z,77.90
2018-02-21T00:23:26.894Z,78.03
2018-02-21T00:25:54.483Z,78.25
2018-02-21T00:28:22.846Z,78.07
2018-02-21T00:30:50.476Z,78.38
2018-02-21T00:33:18.896Z,77.99
2018-02-21T00:35:47.255Z,78.05
2018-02-21T00:38:15.697Z,78.68
2018-02-21T00:40:43.296Z,78.17
2018-02-21T00:43:10.922Z,78.16
2018-02-21T00:45:38.509Z,78.25
2018-02-21T00:48:06.933Z,79.11
2018-02-21T00:50:34.518Z,78.57
2018-02-21T00:53:02.142Z,78.14
2018-02-21T00:55:29.731Z,78.87
2018-02-21T00:57:58.026Z,78.44
2018-02-21T01:00:26.611Z,78.28
2018-02-21T01:02:54.260Z,78.74
2018-02-21T01:05:21.853Z,78.63
2018-02-21T01:07:49.436Z,78.96
2018-02-21T01:10:17.025Z,79.49
2018-02-21T01:12:45.410Z,79.42
2018-02-21T01:15:14.052Z,79.43
2018-02-21T01:17:41.673Z,79.28
2018-02-21T01:20:09.266Z,79.83
2018-02-21T01:22:36.897Z,79.94
2018-02-21T01:25:04.484Z,80.47
2018-02-21T01:27:32.207Z,80.16
2018-02-21T01:29:59.789Z,80.32
2018-02-21T01:32:27.411Z,80.22
2018-02-21T01:34:55.772Z,81.05
2018-02-21T01:37:23.354Z,80.95
2018-02-21T01:39:50.942Z,80.54
2018-02-21T01:42:19.333Z,80.64
2018-02-21T01:44:46.928Z,80.65
2018-02-21T01:47:14.519Z,80.26
2018-02-21T01:49:42.205Z,80.23
2018-02-21T01:52:09.857Z,80.25
2018-02-21T01:54:37.442Z,79.92
2018-02-21T01:57:05.028Z,79.86
2018-02-21T01:59:32.651Z,80.44
2018-02-21T02:02:01.190Z,80.43
2018-02-21T02:04:28.777Z,80.39
2018-02-21T02:06:56.372Z,80.52
2018-02-21T02:09:24.918Z,80.53
2018-02-21T02:11:53.546Z,80.92
2018-02-21T02:14:21.125Z,80.95
2018-02-21T02:16:49.523Z,80.70
2018-02-21T02:19:17.103Z,80.70
2018-02-21T02:21:44.686Z,81.12
2018-02-21T02:24:13.679Z,81.23
2018-02-21T02:26:42.047Z,81.45
2018-02-21T02:29:09.714Z,81.92
2018-02-21T02:31:37.303Z,81.63
2018-02-21T02:34:04.891Z,81.33
2018-02-21T02:36:32.486Z,81.02
2018-02-21T02:39:11.947Z,81.00
2018-02-21T02:41:39.536Z,81.01
2018-02-21T02:44:07.122Z,81.29
2018-02-21T02:46:34.746Z,81.65
2018-02-21T02:49:02.336Z,81.36
2018-02-21T02:51:29.971Z,81.46
2018-02-21T02:53:57.559Z,81.56
2018-02-21T02:56:25.178Z,81.79
2018-02-21T02:58:52.800Z,81.49
2018-02-21T03:01:20.444Z,81.63
2018-02-21T03:03:48.027Z,81.57
2018-02-21T03:06:15.619Z,81.77
2018-02-21T03:08:43.248Z,82.13
2018-02-21T03:11:10.838Z,82.27
2018-02-21T03:13:38.466Z,82.17
2018-02-21T03:16:06.051Z,82.37
2018-02-21T03:18:33.677Z,82.92
2018-02-21T03:21:01.263Z,83.06
2018-02-21T03:23:28.881Z,83.30
2018-02-21T03:25:56.471Z,82.90
2018-02-21T03:28:24.096Z,83.52
2018-02-21T03:30:51.719Z,83.17
2018-02-21T03:33:19.312Z,83.30
2018-02-21T03:35:46.930Z,83.98
2018-02-21T03:38:14.552Z,83.60
2018-02-21T03:40:42.195Z,83.66
2018-02-21T03:43:09.814Z,84.27
2018-02-21T03:45:37.423Z,84.39
2018-02-21T03:48:05.046Z,83.86
2018-02-21T03:50:32.736Z,83.57
2018-02-21T03:53:00.358Z,84.14
2018-02-21T03:55:28.029Z,84.28
2018-02-21T03:57:55.651Z,84.34
2018-02-21T04:00:23.281Z,84.88
2018-02-21T04:02:50.866Z,84.88
2018-02-21T04:05:18.454Z,84.60
2018-02-21T04:07:46.576Z,85.32
2018-02-21T04:10:14.293Z,85.65
2018-02-21T04:12:41.874Z,86.42
2018-02-21T04:15:09.461Z,85.73
2018-02-21T04:17:37.050Z,85.96
2018-02-21T04:20:04.639Z,86.29
2018-02-21T04:22:32.227Z,85.81
2018-02-21T04:24:59.972Z,86.53
2018-02-21T04:27:27.559Z,86.04
2018-02-21T04:29:55.141Z,86.12
2018-02-21T04:32:22.735Z,86.53
2018-02-21T04:34:50.318Z,86.00
2018-02-21T04:37:17.905Z,86.59
2018-02-21T04:39:45.533Z,86.61
2018-02-21T04:42:13.119Z,86.11
2018-02-21T04:44:40.758Z,86.56
2018-02-21T04:47:08.343Z,86.20
2018-02-21T04:49:35.932Z,86.43
2018-02-21T04:52:03.513Z,86.73
2018-02-21T04:54:36.839Z,87.10
2018-02-21T04:57:04.426Z,86.50
2018-02-21T04:59:47.683Z,86.93
2018-02-21T05:02:15.270Z,86.79
2018-02-21T05:04:42.860Z,87.26
2018-02-21T05:07:10.557Z,87.49
2018-02-21T05:09:38.195Z,86.87
2018-02-21T05:12:05.792Z,87.33
2018-02-21T05:14:33.379Z,87.54
2018-02-21T05:17:00.975Z,87.67
2018-02-21T05:19:28.563Z,87.69
2018-02-21T05:21:56.151Z,87.74
2018-02-21T05:24:23.899Z,87.80
2018-02-21T05:26:51.478Z,87.71
2018-02-21T05:29:19.105Z,87.31
2018-02-21T05:31:46.690Z,88.13
2018-02-21T05:34:14.310Z,88.11
2018-02-21T05:36:41.898Z,88.87
2018-02-21T05:39:09.522Z,88.27
2018-02-21T05:41:37.178Z,88.82
2018-02-21T05:44:04.793Z,89.13
2018-02-21T05:46:32.445Z,88.87
2018-02-21T05:49:00.031Z,88.34
2018-02-21T05:51:27.624Z,87.88
2018-02-21T05:53:55.213Z,87.60
2018-02-21T05:56:22.827Z,88.61
2018-02-21T05:58:50.418Z,88.51
2018-02-21T06:01:18.071Z,88.64
2018-02-21T06:03:45.690Z,88.57
2018-02-21T06:06:13.318Z,89.03
2018-02-21T06:08:40.922Z,89.00
2018-02-21T06:11:08.533Z,89.00
2018-02-21T06:13:36.114Z,89.39
2018-02-21T06:16:03.742Z,89.41
2018-02-21T06:18:31.327Z,89.39
2018-02-21T06:20:58.942Z,89.30
2018-02-21T06:23:26.528Z,89.26
2018-02-21T06:25:54.109Z,88.36
2018-02-21T06:28:21.743Z,88.47
2018-02-21T06:30:49.332Z,88.53
2018-02-21T06:33:17.006Z,88.63
2018-02-21T06:35:44.666Z,88.84
2018-02-21T06:38:12.291Z,89.12
2018-02-21T06:40:39.880Z,88.41
2018-02-21T06:43:07.501Z,88.24
2018-02-21T06:45:35.898Z,89.08
2018-02-21T06:48:03.522Z,88.47
2018-02-21T06:50:31.141Z,88.65
2018-02-21T06:52:58.768Z,88.52
2018-02-21T06:55:26.391Z,88.27
2018-02-21T06:57:53.972Z,88.35
2018-02-21T07:00:21.560Z,89.11
2018-02-21T07:03:33.605Z,88.61
2018-02-21T07:06:01.229Z,88.42
2018-02-21T07:08:28.820Z,88.49
2018-02-21T07:10:56.406Z,88.39
2018-02-21T07:13:23.990Z,88.50
2018-02-21T07:15:51.577Z,88.35
2018-02-21T07:18:19.165Z,88.63
2018-02-21T07:20:46.747Z,88.16
2018-02-21T07:23:14.337Z,87.71
2018-02-21T07:25:41.920Z,87.75
2018-02-21T07:28:09.506Z,87.85
2018-02-21T07:30:37.126Z,88.08
2018-02-21T07:33:04.711Z,87.48
2018-02-21T07:35:32.302Z,87.05
2018-02-21T07:37:59.891Z,86.89
2018-02-21T07:40:27.470Z,87.16
2018-02-21T07:45:29.062Z,87.37
2018-02-21T07:47:56.641Z,87.29
2018-02-21T07:50:24.227Z,87.37
2018-02-21T07:52:51.853Z,86.59
2018-02-21T07:55:19.442Z,86.04
2018-02-21T07:57:47.043Z,85.54
2018-02-21T08:00:14.678Z,85.40
2018-02-21T08:02:42.331Z,84.93
2018-02-21T08:05:09.934Z,84.18
2018-02-21T08:07:37.566Z,84.09
2018-02-21T08:10:05.190Z,84.82
2018-02-21T08:12:32.782Z,84.24
2018-02-21T08:15:00.414Z,84.08
2018-02-21T08:17:28.040Z,84.04
2018-02-21T08:19:55.628Z,84.29
2018-02-21T08:22:23.222Z,83.57
2018-02-21T08:24:50.854Z,84.11
2018-02-21T08:27:18.439Z,83.91
2018-02-21T08:29:46.595Z,82.59
2018-02-21T08:32:14.191Z,82.78
2018-02-21T08:34:41.858Z,82.59
2018-02-21T08:37:09.479Z,82.77
2018-02-21T08:39:37.183Z,81.68
2018-02-21T08:42:04.772Z,81.39
2018-02-21T08:44:32.359Z,79.91
2018-02-21T08:46:59.949Z,81.17
2018-02-21T08:49:27.544Z,79.27
2018-02-21T08:51:55.450Z,79.07
2018-02-21T08:54:23.042Z,78.75
2018-02-21T08:56:50.629Z,79.23
2018-02-21T08:59:18.247Z,79.27
2018-02-21T09:01:45.834Z,79.04
2018-02-21T09:04:13.427Z,79.52
2018-02-21T09:06:41.066Z,78.27
2018-02-21T09:09:08.647Z,78.35
2018-02-21T09:11:36.259Z,77.06
2018-02-21T09:14:04.794Z,78.03
2018-02-21T09:16:32.420Z,77.48
2018-02-21T09:19:00.014Z,76.79
2018-02-21T09:21:27.594Z,76.38
2018-02-21T09:23:55.209Z,75.31
2018-02-21T09:26:22.793Z,74.50
2018-02-21T09:28:50.502Z,73.89
2018-02-21T09:31:18.122Z,73.59
2018-02-21T09:33:45.742Z,74.20
2018-02-21T09:36:13.909Z,74.25
2018-02-21T09:38:41.490Z,73.92
2018-02-21T09:41:09.120Z,74.42
2018-02-21T09:43:36.695Z,73.40
2018-02-21T09:46:04.275Z,72.92
2018-02-21T09:48:31.851Z,72.47
2018-02-21T09:50:59.427Z,73.18
2018-02-21T09:53:27.946Z,71.30
2018-02-21T09:55:55.522Z,72.36
2018-02-21T09:58:23.134Z,72.42
2018-02-21T10:00:50.710Z,71.61
2018-02-21T10:03:18.295Z,71.24
2018-02-21T10:05:45.875Z,73.16
2018-02-21T10:08:13.455Z,72.21
2018-02-21T10:10:41.082Z,72.24
2018-02-21T10:13:08.667Z,70.74
2018-02-21T10:15:36.246Z,68.48
2018-02-21T10:18:03.828Z,69.59
2018-02-21T10:20:31.418Z,68.96
2018-02-21T10:22:59.003Z,70.06
2018-02-21T10:25:26.603Z,68.02
2018-02-21T10:27:54.179Z,67.82
2018-02-21T10:30:21.754Z,66.63
2018-02-21T10:32:49.334Z,67.84
2018-02-21T10:35:16.910Z,67.44
2018-02-21T10:37:44.481Z,67.72
2018-02-21T10:42:45.916Z,65.44
2018-02-21T10:45:13.494Z,64.44
2018-02-21T10:47:41.069Z,60.92
2018-02-21T10:50:08.681Z,60.67
2018-02-21T10:52:36.299Z,61.09
2018-02-21T10:55:03.925Z,61.50
2018-02-21T10:57:31.503Z,59.00
2018-02-21T10:59:59.083Z,60.62
2018-02-21T11:02:26.663Z,60.83
2018-02-21T11:04:54.292Z,59.79
2018-02-21T11:07:21.992Z,59.38
2018-02-21T11:09:50.569Z,59.79
2018-02-21T11:12:18.186Z,58.27
2018-02-21T11:14:45.760Z,57.25
2018-02-21T11:17:13.375Z,56.46
2018-02-21T11:19:40.946Z,54.76
2018-02-21T11:22:08.524Z,55.44
2018-02-21T11:24:36.099Z,52.36
2018-02-21T11:27:03.799Z,53.17
2018-02-21T11:29:31.370Z,51.72
2018-02-21T11:31:59.227Z,52.95
2018-02-21T11:34:26.841Z,52.94
2018-02-21T11:36:54.414Z,51.13
2018-02-21T11:39:22.025Z,51.50
2018-02-21T11:41:50.166Z,51.53
2018-02-21T11:44:17.770Z,52.10
2018-02-21T11:46:45.340Z,52.21
2018-02-21T11:49:12.913Z,50.58
2018-02-21T11:51:40.487Z,49.31
2018-02-21T11:54:08.215Z,52.05
2018-02-21T11:56:35.803Z,52.12
2018-02-21T11:59:03.379Z,50.29
2018-02-21T12:01:30.991Z,49.14
2018-02-21T12:03:58.571Z,49.08
2018-02-21T12:06:26.149Z,47.10
2018-02-21T12:08:53.758Z,47.53
2018-02-21T12:11:21.456Z,47.14
2018-02-21T12:13:49.023Z,47.41
2018-02-21T12:16:16.632Z,50.23
2018-02-21T12:18:44.206Z,50.88
2018-02-21T12:21:11.875Z,50.42
2018-02-21T12:23:39.460Z,51.96
2018-02-21T12:26:07.063Z,50.32
2018-02-21T12:28:34.791Z,50.86
2018-02-21T12:31:02.409Z,52.32
2018-02-21T12:33:29.988Z,49.20
2018-02-21T12:35:57.554Z,49.71
2018-02-21T12:38:25.203Z,50.85
2018-02-21T12:40:58.481Z,51.40
2018-02-21T12:43:26.067Z,52.46
2018-02-21T12:45:53.695Z,51.65
2018-02-21T12:48:21.270Z,51.96
2018-02-21T12:50:48.895Z,52.18
2018-02-21T12:53:16.471Z,52.09
2018-02-21T12:55:44.095Z,50.59
2018-02-21T12:58:11.671Z,48.79
2018-02-21T13:00:39.308Z,49.01
2018-02-21T13:03:06.923Z,48.42
2018-02-21T13:05:34.494Z,46.62
2018-02-21T13:08:02.102Z,47.70
2018-02-21T13:10:29.668Z,48.66
2018-02-21T13:12:57.278Z,48.74
2018-02-21T13:15:24.848Z,47.64
2018-02-21T13:17:52.454Z,49.48
2018-02-21T13:20:20.025Z,47.94
2018-02-21T13:22:47.633Z,49.50
2018-02-21T13:25:15.206Z,50.00
2018-02-21T13:27:42.778Z,49.10
2018-02-21T13:30:10.348Z,49.33
2018-02-21T13:32:37.931Z,48.72
2018-02-21T13:35:05.514Z,50.38
2018-02-21T13:37:33.078Z,48.81
2018-02-21T13:40:00.647Z,49.28
2018-02-21T13:42:28.224Z,47.85
2018-02-21T13:44:55.843Z,48.87
2018-02-21T13:47:23.418Z,49.68
2018-02-21T13:49:50.994Z,49.33
2018-02-21T13:52:18.567Z,49.79
2018-02-21T13:54:46.141Z,49.83
2018-02-21T13:57:13.810Z,50.64
2018-02-21T13:59:41.402Z,51.83
2018-02-21T14:02:08.975Z,51.48
2018-02-21T14:04:36.581Z,51.47
2018-02-21T14:07:04.154Z,52.95
2018-02-21T14:09:31.727Z,52.81
2018-02-21T14:11:59.320Z,49.87
2018-02-21T14:14:26.975Z,49.63
2018-02-21T14:16:54.554Z,51.16
2018-02-21T14:19:22.126Z,50.23
2018-02-21T14:21:49.703Z,52.01
2018-02-21T14:24:17.322Z,52.04
2018-02-21T14:26:44.895Z,51.07
2018-02-21T14:29:12.465Z,51.58
2018-02-21T14:31:40.070Z,51.85
2018-02-21T14:34:07.646Z,51.67
2018-02-21T14:36:35.295Z,51.32
2018-02-21T14:39:02.915Z,51.14
2018-02-21T14:41:31.313Z,51.33
2018-02-21T14:43:58.924Z,50.55
2018-02-21T14:46:26.535Z,51.70
2018-02-21T14:48:54.120Z,51.83
2018-02-21T14:51:21.698Z,52.95
2018-02-21T14:53:49.279Z,52.77
2018-02-21T14:56:16.899Z,52.80
2018-02-21T14:58:44.478Z,54.23
2018-02-21T15:01:12.063Z,53.82
2018-02-21T15:03:39.643Z,54.87
2018-02-21T15:06:07.838Z,54.91
2018-02-21T15:08:35.544Z,56.39
2018-02-21T15:11:03.120Z,56.04
2018-02-21T15:13:30.695Z,56.13
2018-02-21T15:15:58.303Z,54.75
2018-02-21T15:18:25.990Z,56.05
2018-02-21T15:20:53.613Z,56.22
2018-02-21T15:23:21.268Z,56.28
2018-02-21T15:25:48.847Z,58.77
2018-02-21T15:28:16.427Z,58.00
2018-02-21T15:30:43.998Z,58.01
2018-02-21T15:33:11.676Z,58.36
2018-02-21T15:35:40.060Z,56.52
2018-02-21T15:38:07.639Z,59.09
2018-02-21T15:40:35.271Z,57.81
2018-02-21T15:43:02.851Z,59.23
2018-02-21T15:45:30.479Z,58.66
2018-02-21T15:47:58.067Z,56.70
2018-02-21T15:50:25.674Z,57.54
2018-02-21T15:52:53.255Z,57.67
2018-02-21T15:55:20.827Z,58.42
2018-02-21T15:57:48.405Z,58.19
2018-02-21T16:00:16.028Z,57.80
2018-02-21T16:02:43.610Z,58.37
2018-02-21T16:05:11.180Z,57.72
2018-02-21T16:07:38.920Z,57.81
2018-02-21T16:10:07.235Z,58.03
2018-02-21T16:12:34.809Z,58.81
2018-02-21T16:15:02.386Z,58.21
2018-02-21T16:17:29.994Z,60.07
2018-02-21T16:19:57.567Z,60.66
2018-02-21T16:22:25.182Z,60.83
2018-02-21T16:24:52.827Z,61.35
2018-02-21T16:27:20.444Z,62.05
2018-02-21T16:29:48.014Z,60.72
2018-02-21T16:32:15.641Z,61.98
2018-02-21T16:34:43.312Z,61.96
2018-02-21T16:37:10.903Z,61.51
2018-02-21T16:39:38.483Z,60.95
2018-02-21T16:42:06.081Z,60.93
2018-02-21T16:44:33.704Z,63.03
2018-02-21T16:47:01.278Z,62.33
2018-02-21T16:49:28.863Z,61.54
2018-02-21T16:51:56.501Z,62.17
2018-02-21T16:54:24.078Z,62.45
2018-02-21T16:56:51.668Z,62.48
2018-02-21T16:59:19.246Z,64.01
2018-02-21T17:01:46.824Z,62.69
2018-02-21T17:04:14.403Z,63.63
2018-02-21T17:06:41.978Z,64.35
2018-02-21T17:09:09.557Z,63.22
2018-02-21T17:11:37.139Z,63.51
2018-02-21T17:14:04.720Z,63.14
2018-02-21T17:16:32.399Z,63.28
2018-02-21T17:19:00.043Z,64.11
2018-02-21T17:21:28.218Z,66.08
2018-02-21T17:23:55.899Z,66.25
2018-02-21T17:26:23.475Z,65.08
2018-02-21T17:28:51.575Z,65.22
2018-02-21T17:31:19.154Z,65.04
2018-02-21T17:33:46.737Z,65.83
2018-02-21T17:36:14.319Z,66.37
2018-02-21T17:38:41.923Z,66.06
2018-02-21T17:41:15.151Z,66.81
2018-02-21T17:43:42.949Z,67.46
2018-02-21T17:46:10.530Z,68.27
2018-02-21T17:48:38.114Z,68.08
2018-02-21T17:51:06.562Z,68.29
2018-02-21T17:53:34.182Z,69.23
2018-02-21T17:56:01.825Z,70.09
2018-02-21T17:58:29.402Z,70.74
2018-02-21T18:00:56.988Z,71.87
2018-02-21T18:03:24.587Z,72.30
2018-02-21T18:05:52.172Z,71.60
2018-02-21T18:08:19.751Z,71.78
2018-02-21T18:10:47.332Z,71.20
2018-02-21T18:13:14.958Z,71.51
2018-02-21T18:15:42.550Z,72.66
2018-02-21T18:18:10.170Z,73.40
2018-02-21T18:20:37.789Z,72.23
2018-02-21T18:23:06.269Z,73.10
2018-02-21T18:25:33.970Z,72.43
2018-02-21T18:28:01.559Z,73.06
2018-02-21T18:30:29.151Z,72.75
2018-02-21T18:32:56.744Z,71.89
2018-02-21T18:35:24.438Z,72.66
2018-02-21T18:37:52.018Z,72.78
2018-02-21T18:40:19.843Z,73.46
2018-02-21T18:42:47.435Z,73.07
2018-02-21T18:45:15.056Z,72.74
2018-02-21T18:47:42.711Z,72.72
2018-02-21T18:50:10.335Z,73.71
2018-02-21T18:52:37.960Z,74.08
2018-02-21T18:55:05.601Z,74.14
2018-02-21T18:57:33.201Z,74.72
2018-02-21T19:00:01.438Z,74.78
2018-02-21T19:02:29.097Z,76.56
2018-02-21T19:04:56.691Z,78.25
2018-02-21T19:07:24.278Z,77.95
2018-02-21T19:09:51.862Z,80.10
2018-02-21T19:12:19.561Z,80.38
2018-02-21T19:14:47.206Z,79.74
2018-02-21T19:17:14.906Z,77.16
2018-02-21T19:19:42.526Z,77.13
2018-02-21T19:22:10.150Z,77.49
2018-02-21T19:24:37.752Z,79.51
2018-02-21T19:27:05.390Z,78.96
2018-02-21T19:29:32.983Z,77.52
2018-02-21T19:32:00.561Z,77.62
2018-02-21T19:34:28.207Z,77.42
2018-02-21T19:36:55.903Z,78.30
2018-02-21T19:39:23.572Z,78.44
2018-02-21T19:41:51.169Z,79.09
2018-02-21T19:44:18.796Z,78.14
2018-02-21T19:46:46.427Z,76.90
2018-02-21T19:49:14.019Z,76.72
2018-02-21T19:51:41.646Z,77.13
2018-02-21T19:54:09.231Z,75.44
2018-02-21T19:56:36.828Z,76.71
2018-02-21T19:59:04.450Z,77.37
2018-02-21T20:01:32.092Z,78.73
2018-02-21T20:03:59.697Z,78.56
2018-02-21T20:06:27.296Z,76.86
2018-02-21T20:08:54.891Z,78.85
2018-02-21T20:11:22.761Z,76.13
2018-02-21T20:13:51.209Z,75.97
2018-02-21T20:16:18.813Z,75.29
2018-02-21T20:18:46.406Z,75.50
2018-02-21T20:21:13.999Z,77.07
2018-02-21T20:23:41.602Z,78.80
2018-02-21T20:26:09.194Z,76.98
2018-02-21T20:28:36.826Z,76.59
2018-02-21T20:31:04.411Z,77.92
2018-02-21T20:33:32.003Z,76.92
2018-02-21T20:35:59.607Z,77.05
2018-02-21T20:38:27.283Z,77.51
2018-02-21T20:40:54.822Z,78.10
2018-02-21T20:43:22.419Z,77.21
2018-02-21T20:45:50.006Z,77.55
2018-02-21T20:48:17.604Z,77.00
2018-02-21T20:50:45.196Z,77.31
2018-02-21T20:53:12.803Z,77.79
2018-02-21T20:55:40.400Z,78.58
2018-02-21T20:58:08.059Z,79.96
2018-02-21T21:00:37.196Z,77.44
2018-02-21T21:03:06.313Z,78.04
2018-02-21T21:05:38.484Z,78.36
2018-02-21T21:08:10.861Z,77.92
2018-02-21T21:10:43.475Z,77.56
2018-02-21T21:13:11.418Z,77.98
2018-02-21T21:15:39.002Z,78.47
2018-02-21T21:18:06.623Z,79.03
2018-02-21T21:20:34.234Z,78.68
2018-02-21T21:23:04.061Z,78.71
2018-02-21T21:25:31.751Z,78.19
2018-02-21T21:27:59.339Z,77.19
2018-02-21T21:30:26.931Z,77.50
2018-02-21T21:32:54.634Z,77.47
2018-02-21T21:35:22.221Z,77.04
2018-02-21T21:37:49.807Z,76.79
2018-02-21T21:40:17.397Z,76.85
2018-02-21T21:42:44.981Z,77.19
2018-02-21T21:45:12.721Z,78.00
2018-02-21T21:47:40.314Z,79.28
2018-02-21T21:50:07.968Z,78.04
2018-02-21T21:52:35.873Z,77.88
2018-02-21T21:55:03.761Z,78.53
2018-02-21T21:57:31.415Z,77.86
2018-02-21T21:59:59.126Z,77.99
2018-02-21T22:02:27.014Z,77.68
2018-02-21T22:04:55.011Z,77.72
2018-02-21T22:07:22.641Z,77.85
2018-02-21T22:09:50.230Z,78.05
2018-02-21T22:12:17.868Z,78.19
2018-02-21T22:14:45.760Z,78.09
2018-02-21T22:17:13.399Z,79.29
2018-02-21T22:19:41.006Z,78.97
2018-02-21T22:22:08.646Z,79.34
2018-02-21T22:24:36.491Z,79.39
2018-02-21T22:27:04.376Z,79.63
2018-02-21T22:29:31.976Z,79.43
2018-02-21T22:31:59.561Z,81.22
2018-02-21T22:34:27.352Z,81.16
2018-02-21T22:36:55.240Z,81.66
2018-02-21T22:39:22.863Z,80.78
2018-02-21T22:41:50.486Z,81.68
2018-02-21T22:44:18.414Z,81.55
2018-02-21T22:46:46.808Z,81.14
2018-02-21T22:49:14.590Z,81.86
2018-02-21T22:51:42.195Z,82.21
2018-02-21T22:54:09.793Z,82.12
2018-02-21T22:56:37.562Z,83.33
2018-02-21T22:59:05.447Z,82.04
2018-02-21T23:01:33.172Z,82.37
2018-02-21T23:04:00.761Z,82.73
2018-02-21T23:06:28.477Z,83.00
2018-02-21T23:08:56.369Z,82.89
2018-02-21T23:11:24.048Z,83.53
2018-02-21T23:13:51.652Z,82.27
2018-02-21T23:16:19.459Z,83.29
2018-02-21T23:18:47.652Z,82.94
2018-02-21T23:21:15.417Z,82.75
2018-02-21T23:23:43.035Z,84.10
2018-02-21T23:26:10.621Z,84.42
2018-02-21T23:28:38.304Z,83.96
2018-02-21T23:31:05.921Z,84.13
2018-02-21T23:33:33.507Z,84.12
2018-02-21T23:36:01.087Z,85.23
2018-02-21T23:38:28.715Z,84.44
2018-02-21T23:40:56.307Z,84.84
2018-02-21T23:43:23.890Z,84.58
2018-02-21T23:45:51.479Z,84.81
2018-02-21T23:48:19.070Z,84.83
2018-02-21T23:50:46.694Z,85.30
2018-02-21T23:53:14.282Z,85.82
2018-02-21T23:55:41.872Z,85.79
2018-02-21T23:58:09.458Z,85.75
